| time (UTC) | temp C | wind direction | speed KPH | gust KPH | rain 1hr cm | rain 24hr cm | rain mn cm | humidity % | barometer mb |
| 20260906060010 | 20 | 156 | 0.0 | 0.0 | 0.00 | 0.53 | 0.00 | 100 | 1010.2 |
| 20260906054508 | 20 | 156 | 0.0 | 0.0 | 0.00 | 0.53 | 0.00 | 100 | 1010.4 |
| 20260906053008 | 20 | 156 | 0.0 | 0.0 | 0.00 | 0.53 | 0.00 | 100 | 1010.5 |
| 20260906051505 | 20 | 156 | 0.0 | 0.0 | 0.00 | 0.53 | 0.00 | 100 | 1010.7 |
| 20260906050011 | 20 | 156 | 0.0 | 0.0 | 0.00 | 0.53 | 0.00 | 100 | 1010.8 |
| 20260906044503 | 20 | 156 | 0.0 | 0.0 | 0.00 | 0.53 | 0.00 | 100 | 1010.8 |
| 20260906043002 | 21 | 156 | 0.0 | 0.0 | 0.00 | 0.53 | 0.00 | 100 | 1010.7 |
| 20260906041601 | 20 | 156 | 0.0 | 0.0 | 0.00 | 0.53 | 0.00 | 100 | 1010.9 |
| 20260906040059 | 20 | 156 | 0.0 | 0.0 | 0.00 | 0.53 | 0.00 | 100 | 1011.0 |
| 20260906034558 | 21 | 156 | 0.0 | 0.0 | 0.00 | 0.53 | 0.53 | 100 | 1011.1 |
| 20260906033057 | 21 | 156 | 0.0 | 0.0 | 0.00 | 0.53 | 0.53 | 100 | 1011.3 |
| 20260906031557 | 21 | 156 | 0.0 | 0.0 | 0.00 | 0.53 | 0.53 | 100 | 1011.2 |
| 20260906030118 | 21 | 156 | 0.0 | 0.0 | 0.00 | 0.53 | 0.53 | 100 | 1011.3 |
| 20260906024554 | 21 | 156 | 0.0 | 0.0 | 0.00 | 0.53 | 0.53 | 100 | 1011.2 |
| 20260906023053 | 21 | 156 | 0.0 | 0.0 | 0.00 | 0.53 | 0.53 | 100 | 1010.9 |
| 20260906021608 | 21 | 156 | 0.0 | 0.0 | 0.00 | 0.53 | 0.53 | 100 | 1010.6 |
| 20260906020058 | 21 | 156 | 0.0 | 0.0 | 0.03 | 0.53 | 0.53 | 100 | 1010.6 |
| 20260906014551 | 21 | 156 | 0.0 | 0.0 | 0.03 | 0.53 | 0.53 | 100 | 1010.5 |
| 20260906013050 | 21 | 156 | 0.0 | 0.0 | 0.03 | 0.53 | 0.53 | 100 | 1010.5 |
| 20260906011550 | 21 | 156 | 0.0 | 0.0 | 0.03 | 0.53 | 0.53 | 100 | 1010.3 |
| 20260906010048 | 22 | 156 | 0.0 | 0.0 | 0.00 | 0.51 | 0.51 | 100 | 1010.3 |
| 20260906004548 | 22 | 156 | 0.0 | 0.0 | 0.03 | 0.51 | 0.51 | 100 | 1010.3 |
| 20260906003057 | 22 | 156 | 0.0 | 0.0 | 0.03 | 0.51 | 0.51 | 100 | 1010.2 |
| 20260906001547 | 22 | 156 | 0.0 | 0.0 | 0.03 | 0.51 | 0.51 | 99 | 1010.1 |
| 20260906000046 | 22 | 156 | 0.0 | 0.0 | 0.03 | 0.51 | 0.51 | 98 | 1009.9 |
| 20260905234553 | 22 | 156 | 0.0 | 0.0 | 0.03 | 0.48 | 0.48 | 99 | 1009.8 |
| 20260905233044 | 23 | 156 | 0.0 | 0.0 | 0.03 | 0.48 | 0.48 | 99 | 1009.6 |
| 20260905231543 | 23 | 156 | 0.0 | 0.0 | 0.05 | 0.48 | 0.48 | 99 | 1009.4 |
| 20260905230041 | 23 | 156 | 0.0 | 0.0 | 0.05 | 0.48 | 0.48 | 99 | 1009.4 |
| 20260905224543 | 23 | 156 | 0.0 | 0.0 | 0.05 | 0.46 | 0.46 | 100 | 1009.3 |
| 20260905223042 | 23 | 156 | 0.0 | 0.0 | 0.08 | 0.46 | 0.46 | 99 | 1009.2 |
| 20260905221538 | 23 | 156 | 0.0 | 0.0 | 0.08 | 0.43 | 0.43 | 99 | 1009.1 |
| 20260905220034 | 23 | 156 | 0.0 | 0.0 | 0.10 | 0.43 | 0.43 | 100 | 1009.4 |
| 20260905214531 | 23 | 156 | 0.0 | 0.0 | 0.10 | 0.41 | 0.41 | 100 | 1009.3 |
| 20260905213028 | 22 | 156 | 0.0 | 0.0 | 0.10 | 0.38 | 0.38 | 100 | 1009.8 |
| 20260905211524 | 22 | 156 | 0.0 | 0.0 | 0.13 | 0.36 | 0.36 | 100 | 1009.9 |
| 20260905210023 | 21 | 156 | 0.0 | 0.0 | 0.15 | 0.33 | 0.33 | 99 | 1010.1 |
| 20260905204520 | 21 | 156 | 0.0 | 1.6 | 0.18 | 0.30 | 0.30 | 99 | 1010.5 |
| 20260905203020 | 20 | 156 | 0.0 | 0.0 | 0.25 | 0.28 | 0.28 | 99 | 1010.5 |
| 20260905201517 | 20 | 156 | 0.0 | 0.0 | 0.23 | 0.23 | 0.23 | 98 | 1010.7 |
| 20260905200026 | 20 | 156 | 0.0 | 0.0 | 0.18 | 0.18 | 0.18 | 97 | 1010.7 |
| 20260905194515 | 20 | 156 | 0.0 | 0.0 | 0.13 | 0.13 | 0.13 | 95 | 1009.9 |
| 20260905193025 | 21 | 156 | 0.0 | 14.5 | 0.03 | 0.03 | 0.03 | 92 | 1010.4 |
| 20260905190040 | 32 | 14 | 6.4 | 19.3 | 0.00 | 0.00 | 0.00 | 66 | 1009.7 |
| 20260905184548 | 34 | 198 | 0.0 | 0.0 | 0.00 | 0.00 | 0.00 | 64 | 1009.3 |
| 20260905183041 | 35 | 267 | 0.0 | 6.4 | 0.00 | 0.00 | 0.00 | 57 | 1009.3 |
| 20260905181536 | 35 | 317 | 0.0 | 8.0 | 0.00 | 0.00 | 0.00 | 57 | 1009.6 |
| 20260905180033 | 35 | 340 | 8.0 | 19.3 | 0.00 | 0.00 | 0.00 | 58 | 1009.9 |
| 20260905174536 | 35 | 31 | 0.0 | 14.5 | 0.00 | 0.00 | 0.00 | 59 | 1010.2 |
| 20260905173027 | 35 | 322 | 0.0 | 1.6 | 0.00 | 0.00 | 0.00 | 58 | 1010.6 |
| 20260905171525 | 35 | 306 | 0.0 | 1.6 | 0.00 | 0.00 | 0.00 | 61 | 1010.9 |
| 20260905170022 | 34 | 250 | 1.6 | 8.0 | 0.00 | 0.00 | 0.00 | 62 | 1011.1 |
| 20260905164520 | 33 | 313 | 1.6 | 4.8 | 0.00 | 0.00 | 0.00 | 64 | 1011.3 |
| 20260905163016 | 33 | 284 | 0.0 | 4.8 | 0.00 | 0.00 | 0.00 | 69 | 1011.3 |
| 20260905161512 | 32 | 209 | 0.0 | 1.6 | 0.00 | 0.00 | 0.00 | 69 | 1011.6 |
| 20260905160022 | 32 | 259 | 0.0 | 8.0 | 0.00 | 0.00 | 0.00 | 71 | 1011.8 |
| 20260905154506 | 31 | 152 | 1.6 | 8.0 | 0.00 | 0.00 | 0.00 | 74 | 1011.9 |
| 20260905153003 | 31 | 90 | 0.0 | 8.0 | 0.00 | 0.00 | 0.00 | 77 | 1011.9 |
| 20260905151600 | 31 | 267 | 0.0 | 1.6 | 0.00 | 0.00 | 0.00 | 79 | 1011.9 |
| 20260905150056 | 30 | 226 | 0.0 | 4.8 | 0.00 | 0.00 | 0.00 | 82 | 1012.0 |
| 20260905144553 | 29 | 107 | 0.0 | 6.4 | 0.00 | 0.00 | 0.00 | 84 | 1012.1 |
| 20260905143049 | 28 | 217 | 0.0 | 9.7 | 0.00 | 0.00 | 0.00 | 85 | 1012.0 |
| 20260905141607 | 27 | 260 | 0.0 | 3.2 | 0.00 | 0.00 | 0.00 | 88 | 1012.2 |
| 20260905140054 | 27 | 261 | 0.0 | 4.8 | 0.00 | 0.00 | 0.00 | 90 | 1012.1 |
| 20260905134544 | 26 | 267 | 1.6 | 6.4 | 0.00 | 0.00 | 0.00 | 92 | 1012.2 |
| 20260905133048 | 25 | 234 | 0.0 | 0.0 | 0.00 | 0.00 | 0.00 | 97 | 1012.4 |
| 20260905131548 | 24 | 234 | 0.0 | 3.2 | 0.00 | 0.00 | 0.00 | 100 | 1012.5 |
| 20260905130030 | 23 | 182 | 0.0 | 1.6 | 0.00 | 0.00 | 0.00 | 100 | 1012.4 |
| 20260905124529 | 23 | 182 | 0.0 | 0.0 | 0.00 | 0.00 | 0.00 | 100 | 1012.6 |
| 20260905123028 | 22 | 182 | 0.0 | 0.0 | 0.00 | 0.00 | 0.00 | 100 | 1012.5 |
| 20260905121527 | 22 | 182 | 0.0 | 0.0 | 0.00 | 0.00 | 0.00 | 100 | 1012.5 |
| 20260905120028 | 22 | 182 | 0.0 | 0.0 | 0.00 | 0.00 | 0.00 | 100 | 1012.3 |
| 20260905114535 | 21 | 182 | 0.0 | 0.0 | 0.00 | 0.00 | 0.00 | 100 | 1012.3 |
| 20260905113024 | 22 | 182 | 0.0 | 0.0 | 0.00 | 0.00 | 0.00 | 100 | 1012.0 |
| 20260905111523 | 22 | 182 | 0.0 | 0.0 | 0.00 | 0.00 | 0.00 | 100 | 1011.8 |
| 20260905110024 | 22 | 182 | 0.0 | 0.0 | 0.00 | 0.00 | 0.00 | 99 | 1011.4 |
| 20260905104523 | 22 | 182 | 0.0 | 0.0 | 0.00 | 0.00 | 0.00 | 100 | 1011.3 |
| 20260905103031 | 22 | 182 | 0.0 | 0.0 | 0.00 | 0.00 | 0.00 | 99 | 1011.0 |
| 20260905101521 | 22 | 182 | 0.0 | 0.0 | 0.00 | 0.00 | 0.00 | 99 | 1011.0 |
| 20260905100020 | 22 | 182 | 0.0 | 0.0 | 0.00 | 0.00 | 0.00 | 99 | 1010.8 |
| 20260905094519 | 22 | 182 | 0.0 | 0.0 | 0.00 | 0.00 | 0.00 | 99 | 1010.9 |
| 20260905093017 | 22 | 182 | 0.0 | 0.0 | 0.00 | 0.00 | 0.00 | 98 | 1010.9 |
| 20260905091515 | 22 | 182 | 0.0 | 0.0 | 0.00 | 0.00 | 0.00 | 99 | 1011.0 |
| 20260905090015 | 22 | 182 | 0.0 | 0.0 | 0.00 | 0.00 | 0.00 | 98 | 1011.0 |
| 20260905084516 | 22 | 182 | 0.0 | 0.0 | 0.00 | 0.00 | 0.00 | 98 | 1011.2 |
| 20260905083111 | 22 | 182 | 0.0 | 0.0 | 0.00 | 0.00 | 0.00 | 98 | 1011.3 |
| 20260905081509 | 22 | 182 | 0.0 | 0.0 | 0.00 | 0.00 | 0.00 | 98 | 1011.3 |
| 20260905080008 | 22 | 182 | 0.0 | 0.0 | 0.00 | 0.00 | 0.00 | 98 | 1011.5 |
| 20260905074514 | 22 | 182 | 0.0 | 0.0 | 0.00 | 0.00 | 0.00 | 98 | 1011.7 |
| 20260905073005 | 22 | 182 | 0.0 | 0.0 | 0.00 | 0.00 | 0.00 | 98 | 1011.7 |
| 20260905071504 | 22 | 182 | 0.0 | 0.0 | 0.00 | 0.00 | 0.00 | 98 | 1011.8 |
| 20260905070002 | 23 | 182 | 0.0 | 0.0 | 0.00 | 0.00 | 0.00 | 97 | 1011.9 |
| 20260905064613 | 23 | 182 | 0.0 | 0.0 | 0.00 | 0.00 | 0.00 | 97 | 1012.2 |
| 20260905063100 | 23 | 182 | 0.0 | 0.0 | 0.00 | 0.00 | 0.00 | 97 | 1012.3 |
| 20260905061615 | 23 | 182 | 0.0 | 0.0 | 0.00 | 0.00 | 0.00 | 97 | 1012.4 |